Time;durP1;ratioP1;P1;durP2;ratioP2;P2;SDS_P1;SDS_P2;PMS_P1;PMS_P2;Temp;Humidity;BMP_temperature;BMP_pressure;BME280_temperature;BME280_humidity;BME280_pressure;Samples;Min_cycle;Max_cycle;Signal;HPM_P1;HPM_P2
2021/08/01 00:01:26;;;;;;;3.92;3.30;;;;;;;14.66;86.93;100039.25;4915296;29;20048;-84
2021/08/01 00:03:53;;;;;;;3.20;2.90;;;;;;;14.70;86.89;100033.69;4910935;29;20107;-83
2021/08/01 00:06:24;;;;;;;4.82;3.08;;;;;;;14.69;87.15;100031.13;4912315;29;20088;-83
2021/08/01 00:08:51;;;;;;;3.97;3.45;;;;;;;14.67;87.38;100038.31;4902033;29;20442;-83
2021/08/01 00:11:18;;;;;;;3.63;2.90;;;;;;;14.63;87.46;100046.44;4923207;29;20043;-83
2021/08/01 00:13:47;;;;;;;3.28;2.97;;;;;;;14.66;88.39;100042.78;4922659;29;20048;-84
2021/08/01 00:16:14;;;;;;;3.70;3.20;;;;;;;14.66;88.48;100047.22;4914860;29;20148;-83
2021/08/01 00:18:44;;;;;;;3.85;3.03;;;;;;;14.63;88.54;100043.78;4915221;29;20518;-83
2021/08/01 00:21:11;;;;;;;4.78;3.10;;;;;;;14.65;88.48;100035.72;4895999;29;20044;-84
2021/08/01 00:23:38;;;;;;;4.65;3.28;;;;;;;14.63;88.55;100040.28;4922228;29;20537;-82
2021/08/01 00:26:04;;;;;;;4.13;3.20;;;;;;;14.63;88.52;100041.13;4928712;29;20043;-84
2021/08/01 00:28:34;;;;;;;4.55;2.83;;;;;;;14.60;89.17;100032.41;4931453;29;20052;-82
2021/08/01 00:31:03;;;;;;;3.83;3.10;;;;;;;14.64;89.17;100048.16;4933496;29;20047;-83
2021/08/01 00:33:30;;;;;;;3.60;3.08;;;;;;;14.67;89.19;100054.28;4920147;29;20437;-85
2021/08/01 00:35:57;;;;;;;4.10;3.70;;;;;;;14.73;88.88;100049.53;4913755;29;20055;-82
2021/08/01 00:38:24;;;;;;;5.38;3.33;;;;;;;14.72;88.73;100049.63;4905872;29;20110;-83
2021/08/01 00:40:53;;;;;;;4.32;3.17;;;;;;;14.67;88.35;100049.81;4916460;29;20048;-83
2021/08/01 00:43:20;;;;;;;3.40;3.10;;;;;;;14.69;88.52;100045.28;4912594;29;20607;-82
2021/08/01 00:45:50;;;;;;;5.03;3.38;;;;;;;14.62;88.79;100039.38;4897949;29;20059;-81
2021/08/01 00:48:23;;;;;;;4.35;3.15;;;;;;;14.66;89.44;100031.28;4927834;29;20043;-84
2021/08/01 00:50:55;;;;;;;3.72;3.10;;;;;;;14.61;90.30;100032.34;4915328;29;20059;-82
2021/08/01 00:53:22;;;;;;;3.63;3.30;;;;;;;14.69;89.96;100024.00;4910694;29;20055;-83
2021/08/01 00:55:49;;;;;;;4.10;3.28;;;;;;;14.60;90.25;100045.72;4948245;29;20130;-85
2021/08/01 00:58:17;;;;;;;3.58;3.28;;;;;;;14.73;89.02;100036.22;4918632;29;20130;-81
2021/08/01 01:03:41;;;;;;;3.60;3.00;;;;;;;14.79;89.39;100040.38;4927547;29;20159;-85
2021/08/01 01:06:27;;;;;;;3.97;3.58;;;;;;;14.78;89.30;100028.03;4916043;29;20138;-83
2021/08/01 01:09:08;;;;;;;5.10;3.72;;;;;;;14.73;88.77;100030.91;4916481;29;20048;-83
2021/08/01 01:11:41;;;;;;;3.53;3.22;;;;;;;14.69;89.04;100029.31;4916648;29;20051;-82
2021/08/01 01:14:11;;;;;;;3.47;3.17;;;;;;;14.58;89.92;100034.28;4915106;29;20095;-83
2021/08/01 01:16:46;;;;;;;4.13;3.20;;;;;;;14.55;89.85;100037.97;4930710;29;20503;-83
2021/08/01 01:19:24;;;;;;;4.20;3.38;;;;;;;14.54;90.57;100038.88;4923803;29;20055;-84
2021/08/01 01:21:57;;;;;;;3.75;3.42;;;;;;;14.51;90.61;100033.72;4920552;29;20542;-83
2021/08/01 01:24:26;;;;;;;3.57;3.27;;;;;;;14.52;90.14;100037.22;4917504;29;20048;-83
2021/08/01 01:27:08;;;;;;;3.97;3.03;;;;;;;14.51;90.18;100033.72;4918757;29;20051;-84
2021/08/01 01:29:57;;;;;;;3.85;3.25;;;;;;;14.47;91.27;100039.25;4923779;29;20731;-82
2021/08/01 01:32:56;;;;;;;3.78;3.42;;;;;;;14.39;91.41;100034.25;4921857;29;20087;-83
2021/08/01 01:35:29;;;;;;;3.75;3.30;;;;;;;14.43;91.15;100032.31;4894726;29;20055;-82
2021/08/01 01:37:56;;;;;;;3.65;3.35;;;;;;;14.44;92.47;100031.38;4907700;29;20044;-82
2021/08/01 01:40:23;;;;;;;4.32;3.50;;;;;;;14.36;92.56;100024.63;4920613;29;20055;-85
2021/08/01 01:42:55;;;;;;;3.72;3.35;;;;;;;14.36;92.30;100021.09;4922171;29;20518;-82
2021/08/01 01:45:22;;;;;;;3.92;3.25;;;;;;;14.37;91.79;100023.69;4927434;29;20047;-83
2021/08/01 01:47:52;;;;;;;3.67;3.35;;;;;;;14.29;92.06;100030.28;4915867;29;20047;-84
2021/08/01 01:50:23;;;;;;;4.25;3.50;;;;;;;14.24;91.82;100027.00;4919607;29;20106;-82
2021/08/01 01:52:51;;;;;;;5.15;3.40;;;;;;;14.23;90.66;100036.75;4935446;29;20086;-83
2021/08/01 01:55:19;;;;;;;3.97;3.10;;;;;;;14.18;91.30;100038.75;4934914;29;20058;-84
2021/08/01 01:57:51;;;;;;;4.60;3.20;;;;;;;14.11;91.71;100047.06;4917123;29;20069;-84
2021/08/01 02:00:18;;;;;;;5.68;3.80;;;;;;;14.20;92.20;100049.28;4915942;29;20418;-81
2021/08/01 02:02:50;;;;;;;4.50;3.30;;;;;;;14.11;93.36;100044.41;4919630;29;20055;-83
2021/08/01 02:05:17;;;;;;;4.47;3.58;;;;;;;14.11;92.75;100042.59;4926492;29;20493;-83
2021/08/01 02:07:43;;;;;;;4.55;3.50;;;;;;;14.05;93.10;100046.41;4917710;29;20040;-82
2021/08/01 02:10:22;;;;;;;3.50;3.20;;;;;;;14.12;93.22;100048.78;4899330;29;20039;-83
2021/08/01 02:12:53;;;;;;;4.28;3.80;;;;;;;14.03;94.66;100042.94;4936538;29;20138;-84
2021/08/01 02:15:54;;;;;;;6.25;3.67;;;;;;;14.00;95.62;100039.56;4917350;29;20115;-82
2021/08/01 02:18:28;;;;;;;4.38;3.60;;;;;;;13.96;95.36;100032.69;4913642;29;20063;-81
2021/08/01 02:20:56;;;;;;;4.43;3.28;;;;;;;13.94;96.17;100035.38;4909016;29;20072;-83
2021/08/01 02:23:26;;;;;;;7.95;3.33;;;;;;;13.93;95.90;100032.81;4916080;29;20470;-81
2021/08/01 02:25:54;;;;;;;3.60;3.28;;;;;;;13.93;96.04;100033.66;4928205;29;20048;-83
2021/08/01 02:28:27;;;;;;;4.28;3.85;;;;;;;13.92;96.95;100031.94;4916582;29;20044;-83
2021/08/01 02:30:55;;;;;;;4.50;3.35;;;;;;;13.94;96.95;100030.06;4926643;29;20074;-81
2021/08/01 02:33:27;;;;;;;4.18;3.70;;;;;;;13.98;97.53;100025.50;4916973;29;20062;-82
2021/08/01 02:36:01;;;;;;;4.88;3.72;;;;;;;14.04;97.59;100015.47;4891805;29;20135;-84
2021/08/01 02:38:35;;;;;;;4.70;3.58;;;;;;;14.06;98.45;100026.03;4910994;29;20048;-83
2021/08/01 02:41:04;;;;;;;;;;;;;;;14.06;98.25;100021.56;4928101;29;20052;-83
2021/08/01 02:43:32;;;;;;;4.47;3.47;;;;;;;14.12;98.19;100027.53;4907912;29;19938;-82
2021/08/01 02:46:02;;;;;;;5.30;3.90;;;;;;;14.21;97.11;100030.66;4913331;29;20415;-82
2021/08/01 02:48:32;;;;;;;4.68;3.53;;;;;;;14.19;97.48;100035.16;4913074;29;20130;-82
2021/08/01 02:51:03;;;;;;;4.65;3.50;;;;;;;14.24;97.57;100041.13;4920044;29;20040;-82
2021/08/01 02:53:38;;;;;;;4.65;3.83;;;;;;;14.22;98.12;100034.16;4904963;29;20052;-82
2021/08/01 02:56:05;;;;;;;4.32;3.85;;;;;;;14.25;98.45;100034.88;4927943;29;20607;-82
2021/08/01 02:58:33;;;;;;;5.80;3.55;;;;;;;14.34;98.07;100041.56;4915638;29;20047;-82
2021/08/01 03:01:02;;;;;;;5.43;3.83;;;;;;;14.37;98.24;100046.72;4921492;29;20052;-82
2021/08/01 03:03:36;;;;;;;4.90;3.60;;;;;;;14.57;95.83;100056.50;4900117;29;20052;-82
2021/08/01 03:06:04;;;;;;;4.40;3.58;;;;;;;14.52;96.52;100048.72;4929723;29;20047;-82
2021/08/01 03:08:33;;;;;;;4.22;3.47;;;;;;;14.57;96.19;100046.72;4903703;29;20047;-82
2021/08/01 03:11:01;;;;;;;5.18;3.80;;;;;;;14.62;95.95;100047.34;4903711;29;20050;-83
2021/08/01 03:13:29;;;;;;;3.53;3.22;;;;;;;14.63;95.57;100043.78;4912802;29;20067;-83
2021/08/01 03:15:56;;;;;;;4.13;3.45;;;;;;;14.63;95.84;100035.81;4896239;29;20036;-83
2021/08/01 03:18:26;;;;;;;4.65;3.47;;;;;;;14.57;95.48;100046.72;4903640;29;20055;-83
2021/08/01 03:21:00;;;;;;;4.25;3.65;;;;;;;14.80;94.45;100047.44;4913481;29;20043;-82
2021/08/01 03:23:27;;;;;;;3.95;3.53;;;;;;;14.73;94.31;100038.91;4951202;28;20397;-82
2021/08/01 03:25:57;;;;;;;5.45;3.60;;;;;;;14.75;94.47;100038.81;4915792;29;20508;-82
2021/08/01 03:28:23;;;;;;;4.68;3.50;;;;;;;14.79;95.00;100040.38;4900396;29;20046;-82
2021/08/01 03:30:50;;;;;;;4.50;4.10;;;;;;;14.80;95.10;100043.00;4900183;29;20047;-82
2021/08/01 03:33:17;;;;;;;4.05;3.50;;;;;;;14.85;94.72;100046.28;4929347;28;20507;-82
2021/08/01 03:35:43;;;;;;;5.22;2.97;;;;;;;14.90;93.88;100046.06;4899247;29;20099;-82
2021/08/01 03:38:10;;;;;;;4.72;3.97;;;;;;;14.88;94.41;100043.50;4898850;29;20048;-82
2021/08/01 03:40:37;;;;;;;4.88;3.90;;;;;;;14.98;93.26;100043.03;4916427;29;20462;-82
2021/08/01 03:43:03;;;;;;;6.07;3.78;;;;;;;14.97;93.32;100050.16;4915051;29;20043;-82
2021/08/01 03:45:30;;;;;;;3.90;3.05;;;;;;;14.98;93.17;100051.88;4909770;29;20059;-82
2021/08/01 03:47:56;;;;;;;3.55;3.25;;;;;;;14.96;93.94;100047.56;4913602;29;20093;-83
2021/08/01 03:50:23;;;;;;;3.78;2.90;;;;;;;15.03;92.92;100049.84;4913757;29;20078;-82
2021/08/01 03:52:50;;;;;;;4.38;3.47;;;;;;;15.18;91.92;100050.91;4909589;29;20043;-83
2021/08/01 03:55:17;;;;;;;4.47;3.15;;;;;;;15.04;93.06;100048.03;4930953;29;20488;-82
2021/08/01 03:57:43;;;;;;;4.05;3.33;;;;;;;15.09;92.83;100044.22;4916453;29;20043;-83
2021/08/01 04:00:10;;;;;;;3.55;3.22;;;;;;;15.04;93.14;100042.72;4927527;29;20036;-83
2021/08/01 04:02:37;;;;;;;4.88;3.30;;;;;;;15.09;92.94;100054.00;4913280;29;20048;-82
2021/08/01 04:05:06;;;;;;;5.03;3.20;;;;;;;15.07;93.75;100051.44;4881247;29;20044;-83
2021/08/01 04:07:33;;;;;;;4.45;3.50;;;;;;;15.06;93.82;100057.69;4913271;29;20059;-85
2021/08/01 04:10:00;;;;;;;4.75;3.40;;;;;;;15.11;93.83;100068.97;4912292;29;20079;-86
2021/08/01 04:12:26;;;;;;;5.78;3.60;;;;;;;15.15;93.96;100059.03;4931218;29;20047;-83
2021/08/01 04:14:53;;;;;;;5.60;3.67;;;;;;;15.20;92.56;100057.88;4896092;29;20126;-83
2021/08/01 04:17:20;;;;;;;3.83;3.42;;;;;;;15.23;91.71;100061.34;4897853;29;20044;-83
2021/08/01 04:19:47;;;;;;;4.25;3.45;;;;;;;15.24;92.34;100073.69;4913862;29;20069;-83
2021/08/01 04:22:19;;;;;;;5.40;3.53;;;;;;;15.24;92.67;100076.34;4931763;29;20535;-83
2021/08/01 04:24:45;;;;;;;3.60;3.00;;;;;;;15.26;93.05;100078.00;4915352;29;20047;-83
2021/08/01 04:27:12;;;;;;;6.47;3.40;;;;;;;15.39;90.84;100075.59;4916201;29;20095;-83
2021/08/01 04:29:39;;;;;;;4.63;3.30;;;;;;;15.41;90.31;100073.72;4914987;29;20571;-82
2021/08/01 04:32:06;;;;;;;4.07;3.55;;;;;;;15.34;90.84;100064.31;4931296;29;20040;-83
2021/08/01 04:34:33;;;;;;;4.93;3.70;;;;;;;15.42;90.43;100060.34;4914808;29;20043;-83
2021/08/01 04:36:59;;;;;;;2.97;2.60;;;;;;;15.34;91.21;100065.19;4916161;29;20042;-83
2021/08/01 04:39:26;;;;;;;3.47;3.08;;;;;;;15.36;91.05;100062.44;4914742;29;20069;-82
2021/08/01 04:41:53;;;;;;;4.57;3.15;;;;;;;15.36;90.46;100062.44;4916188;29;20079;-83
2021/08/01 04:44:20;;;;;;;4.57;3.67;;;;;;;15.40;90.33;100074.66;4915202;29;20106;-83
2021/08/01 04:46:47;;;;;;;4.15;3.25;;;;;;;15.33;91.10;100079.44;4915200;29;20095;-83
2021/08/01 04:49:14;;;;;;;4.47;3.45;;;;;;;15.29;91.64;100071.66;4895781;29;20075;-82
2021/08/01 04:51:40;;;;;;;4.82;4.05;;;;;;;15.41;90.92;100066.59;4917550;29;20049;-82
2021/08/01 04:54:07;;;;;;;4.85;3.67;;;;;;;15.46;89.66;100066.34;4918258;29;20486;-82
2021/08/01 04:56:37;;;;;;;4.72;3.70;;;;;;;15.44;89.36;100071.75;4935164;29;20044;-80
2021/08/01 04:59:03;;;;;;;4.30;3.55;;;;;;;15.38;90.64;100066.72;4933867;29;20054;-81
2021/08/01 05:01:30;;;;;;;4.43;3.47;;;;;;;15.37;91.48;100065.00;4918040;29;20114;-83
2021/08/01 05:03:57;;;;;;;5.22;3.70;;;;;;;15.38;91.96;100064.06;4930240;29;20409;-82
2021/08/01 05:06:24;;;;;;;4.78;4.28;;;;;;;15.45;90.60;100061.97;4917280;29;20694;-83
2021/08/01 05:08:51;;;;;;;7.07;3.45;;;;;;;15.54;91.03;100061.50;4924414;29;20514;-83
2021/08/01 05:11:17;;;;;;;3.88;3.00;;;;;;;15.62;90.83;100064.69;4899997;29;20051;-84
2021/08/01 05:13:44;;;;;;;3.97;3.33;;;;;;;15.77;89.47;100063.03;4918994;29;20043;-82
2021/08/01 05:16:15;;;;;;;4.07;3.65;;;;;;;15.75;89.30;100054.28;4898224;29;20040;-82
2021/08/01 05:18:43;;;;;;;5.75;3.40;;;;;;;15.68;89.04;100045.75;4940418;28;20051;-82
2021/08/01 05:21:10;;;;;;;6.95;3.95;;;;;;;15.64;89.66;100041.53;4898867;29;20067;-83
2021/08/01 05:23:36;;;;;;;3.70;3.03;;;;;;;15.56;91.07;100040.16;4903400;29;20051;-81
2021/08/01 05:26:03;;;;;;;4.40;3.50;;;;;;;15.57;90.58;100045.41;4934015;29;20094;-82
2021/08/01 05:28:30;;;;;;;4.80;3.38;;;;;;;15.68;90.39;100032.41;4934499;29;20051;-82
2021/08/01 05:30:57;;;;;;;3.95;3.50;;;;;;;15.70;90.88;100029.66;4929002;29;20499;-83
2021/08/01 05:33:23;;;;;;;3.88;3.47;;;;;;;15.84;90.27;100036.97;4920647;29;20084;-84
2021/08/01 05:35:50;;;;;;;4.07;3.50;;;;;;;15.92;89.23;100048.06;4928993;29;20146;-82
2021/08/01 05:38:17;;;;;;;6.95;3.60;;;;;;;15.91;89.55;100049.03;4931453;29;20414;-82
2021/08/01 05:40:44;;;;;;;3.70;3.30;;;;;;;15.93;89.77;100055.97;4936486;29;20208;-83
2021/08/01 05:43:11;;;;;;;5.93;3.42;;;;;;;16.05;87.77;100052.66;4902756;29;20042;-85
2021/08/01 05:45:37;;;;;;;4.57;3.50;;;;;;;15.97;88.82;100056.66;4929530;29;20135;-86
2021/08/01 05:48:04;;;;;;;5.55;3.90;;;;;;;16.09;88.95;100055.19;4936675;29;20039;-86
2021/08/01 05:50:34;;;;;;;4.00;3.40;;;;;;;16.12;88.79;100047.88;4912946;29;20543;-85
2021/08/01 05:53:01;;;;;;;3.72;3.35;;;;;;;16.11;88.38;100051.50;4911521;29;20051;-84
2021/08/01 05:55:27;;;;;;;5.47;3.35;;;;;;;16.29;87.73;100045.16;4907947;29;20464;-85
2021/08/01 05:57:54;;;;;;;4.65;4.13;;;;;;;16.33;88.11;100052.06;4917350;29;20050;-85
2021/08/01 06:00:21;;;;;;;5.55;3.47;;;;;;;16.31;85.55;100053.97;4920634;29;20070;-82
2021/08/01 06:02:47;;;;;;;3.90;3.45;;;;;;;16.39;87.01;100050.88;4941704;29;20073;-81
2021/08/01 06:05:14;;;;;;;4.35;3.00;;;;;;;16.48;87.50;100053.06;4914523;29;20044;-82
2021/08/01 06:07:41;;;;;;;4.80;3.60;;;;;;;16.77;84.51;100043.47;4899740;29;20115;-81
2021/08/01 06:10:08;;;;;;;4.25;3.13;;;;;;;17.12;83.83;100041.47;4913312;29;20111;-80
2021/08/01 06:12:35;;;;;;;3.63;3.00;;;;;;;17.70;79.27;100039.91;4926947;29;20059;-80
2021/08/01 06:15:03;;;;;;;5.28;3.30;;;;;;;18.21;77.72;100040.38;4946067;29;20505;-81
2021/08/01 06:17:32;;;;;;;4.40;3.10;;;;;;;18.77;74.25;100028.81;4918024;29;20047;-82
2021/08/01 06:19:59;;;;;;;3.97;3.00;;;;;;;19.04;72.94;100033.31;4940446;29;20114;-81
2021/08/01 06:22:25;;;;;;;4.10;3.22;;;;;;;19.06;71.63;100032.25;4915298;29;20503;-80
2021/08/01 06:24:52;;;;;;;2.67;2.40;;;;;;;19.39;70.76;100022.94;4934888;28;20271;-80
2021/08/01 06:27:19;;;;;;;3.55;2.50;;;;;;;19.89;68.08;100027.56;4910198;29;20047;-81
2021/08/01 06:29:46;;;;;;;3.15;2.50;;;;;;;19.94;66.90;100029.94;4950360;28;20040;-81
2021/08/01 06:32:12;;;;;;;3.40;2.92;;;;;;;19.64;68.12;100019.50;4925799;29;20044;-81
2021/08/01 06:34:39;;;;;;;3.20;2.50;;;;;;;20.46;66.15;100021.81;4927292;29;20103;-82
2021/08/01 06:37:06;;;;;;;4.55;2.50;;;;;;;20.76;64.42;100013.34;4917936;29;20028;-84
2021/08/01 06:39:32;;;;;;;5.72;2.65;;;;;;;20.34;64.69;100017.25;4923435;29;20519;-81
2021/08/01 06:41:59;;;;;;;3.08;2.42;;;;;;;20.20;65.43;100004.00;4933223;29;20043;-84
2021/08/01 06:44:26;;;;;;;2.97;2.20;;;;;;;20.23;66.55;100009.13;4902251;29;20052;-84
2021/08/01 06:46:53;;;;;;;3.05;2.50;;;;;;;20.18;65.57;100014.84;4933319;29;20134;-81
2021/08/01 06:49:20;;;;;;;2.75;2.00;;;;;;;20.02;66.27;100008.81;4910837;29;20076;-81
2021/08/01 06:52:07;;;;;;;4.32;3.13;;;;;;;20.02;66.28;100022.25;4901582;29;20043;-83
2021/08/01 06:54:34;;;;;;;3.25;2.30;;;;;;;20.23;67.98;100026.06;4930869;29;20372;-83
2021/08/01 06:57:01;;;;;;;2.90;2.20;;;;;;;20.29;65.46;100032.84;4910199;29;20040;-80
2021/08/01 06:59:28;;;;;;;2.85;2.53;;;;;;;20.21;64.84;100032.53;4927972;29;20090;-84
2021/08/01 07:01:55;;;;;;;5.80;2.33;;;;;;;20.00;64.64;100034.00;4926215;29;20047;-85
2021/08/01 07:04:21;;;;;;;3.63;2.10;;;;;;;19.73;66.74;100037.63;4920020;29;20052;-81
2021/08/01 07:06:50;;;;;;;3.65;2.22;;;;;;;19.78;67.43;100035.50;4926899;29;20048;-83
2021/08/01 07:09:16;;;;;;;2.38;2.08;;;;;;;19.83;66.97;100043.22;4934547;29;20047;-82
2021/08/01 07:11:43;;;;;;;3.22;2.30;;;;;;;19.67;67.30;100046.09;4924839;29;20051;-81
2021/08/01 07:14:10;;;;;;;2.47;2.25;;;;;;;19.65;67.94;100043.50;4915623;29;20047;-84
2021/08/01 07:16:42;;;;;;;2.53;2.00;;;;;;;19.55;68.82;100044.22;4932426;29;20124;-83
2021/08/01 07:19:10;;;;;;;3.13;2.10;;;;;;;19.45;68.32;100046.66;4926526;29;20055;-84
2021/08/01 07:21:36;;;;;;;2.47;2.15;;;;;;;19.27;68.27;100046.06;4932313;29;20040;-84
2021/08/01 07:24:03;;;;;;;3.05;2.35;;;;;;;19.38;70.03;100048.88;4931435;29;20071;-83
2021/08/01 07:26:30;;;;;;;3.83;2.63;;;;;;;19.24;69.42;100048.91;4902123;29;20071;-83
2021/08/01 07:28:57;;;;;;;3.47;2.33;;;;;;;19.29;68.28;100054.00;4915862;29;20040;-82
2021/08/01 07:31:23;;;;;;;3.30;2.03;;;;;;;19.23;69.79;100055.25;4934811;29;20043;-82
2021/08/01 07:33:50;;;;;;;3.55;2.20;;;;;;;19.20;69.76;100050.09;4917161;29;20059;-82
2021/08/01 07:36:17;;;;;;;3.00;2.33;;;;;;;19.29;70.06;100052.16;4921196;29;20048;-81
2021/08/01 07:38:44;;;;;;;4.93;2.60;;;;;;;19.45;70.60;100046.66;4935635;29;20063;-84
2021/08/01 07:41:10;;;;;;;3.40;2.22;;;;;;;19.40;68.75;100054.13;4914611;29;20162;-82
2021/08/01 07:43:37;;;;;;;2.97;2.63;;;;;;;19.40;68.89;100054.13;4928769;29;20464;-83
2021/08/01 07:46:04;;;;;;;3.42;2.50;;;;;;;19.29;70.22;100060.19;4904437;29;20702;-83
2021/08/01 07:48:32;;;;;;;4.00;2.40;;;;;;;19.25;69.82;100058.66;4895977;29;20134;-83
2021/08/01 07:51:00;;;;;;;4.03;2.30;;;;;;;19.18;68.33;100062.75;4905291;29;20048;-82
2021/08/01 07:53:27;;;;;;;2.35;1.98;;;;;;;19.13;68.87;100059.50;4914118;29;20048;-82
2021/08/01 07:55:53;;;;;;;2.53;2.10;;;;;;;19.11;67.85;100062.28;4924136;29;20175;-82
2021/08/01 07:58:20;;;;;;;2.22;2.03;;;;;;;18.98;68.30;100064.00;4912086;29;20040;-82
2021/08/01 08:00:47;;;;;;;2.65;2.28;;;;;;;18.88;68.78;100060.22;4913641;29;20044;-82
2021/08/01 08:03:14;;;;;;;2.88;2.35;;;;;;;18.79;68.54;100067.03;4897807;29;20521;-82
2021/08/01 08:05:40;;;;;;;2.70;2.25;;;;;;;18.69;68.04;100062.38;4924824;29;20052;-82
2021/08/01 08:08:07;;;;;;;4.05;2.45;;;;;;;18.56;68.75;100060.41;4915850;29;20090;-82
2021/08/01 08:10:36;;;;;;;3.13;2.33;;;;;;;18.52;70.11;100056.22;4899352;29;20052;-82
2021/08/01 08:13:03;;;;;;;3.17;2.28;;;;;;;18.59;70.16;100058.53;4916470;29;20478;-83
2021/08/01 08:15:29;;;;;;;3.67;2.25;;;;;;;18.38;68.44;100053.56;4913642;29;20059;-82
2021/08/01 08:17:56;;;;;;;3.08;2.55;;;;;;;18.50;69.89;100057.28;4899767;29;20050;-82
2021/08/01 08:20:23;;;;;;;2.30;2.00;;;;;;;18.47;70.61;100060.13;4913966;29;20091;-83
2021/08/01 08:22:49;;;;;;;2.90;2.20;;;;;;;18.52;71.32;100060.72;4919272;29;20044;-82
2021/08/01 08:25:16;;;;;;;2.65;2.20;;;;;;;18.60;70.26;100054.91;4925671;29;20051;-83
2021/08/01 08:27:43;;;;;;;3.83;2.20;;;;;;;18.71;70.44;100055.09;4938600;29;20044;-82
2021/08/01 08:30:10;;;;;;;2.75;2.22;;;;;;;18.88;69.60;100045.97;4927858;29;20079;-83
2021/08/01 08:32:37;;;;;;;3.80;2.40;;;;;;;18.93;68.86;100046.56;4915758;29;20044;-82
2021/08/01 08:35:05;;;;;;;3.20;2.30;;;;;;;18.88;70.42;100049.50;4913225;29;20328;-83
2021/08/01 08:37:31;;;;;;;7.15;2.80;;;;;;;18.93;69.80;100046.56;4915664;29;20050;-82
2021/08/01 08:39:58;;;;;;;2.70;2.20;;;;;;;18.97;69.08;100050.75;4896959;29;20048;-82
2021/08/01 08:42:26;;;;;;;3.03;2.72;;;;;;;19.04;68.43;100044.88;4929425;29;20047;-82
2021/08/01 08:44:52;;;;;;;3.25;2.95;;;;;;;19.20;69.50;100051.91;4897915;29;20519;-82
2021/08/01 08:47:19;;;;;;;3.20;2.60;;;;;;;19.38;68.15;100053.38;4912499;29;20055;-83
2021/08/01 08:49:48;;;;;;;2.97;2.47;;;;;;;19.51;67.09;100045.41;4922172;29;20044;-82
2021/08/01 08:52:16;;;;;;;3.50;2.17;;;;;;;19.68;67.27;100061.22;4929663;29;20047;-82
2021/08/01 08:54:46;;;;;;;4.32;2.33;;;;;;;19.76;66.80;100060.69;4915362;29;20052;-82
2021/08/01 08:57:25;;;;;;;3.20;2.38;;;;;;;19.70;66.85;100066.47;4899452;29;20222;-82
2021/08/01 08:59:59;;;;;;;2.83;2.38;;;;;;;19.72;67.86;100061.88;4915413;29;20094;-82
2021/08/01 09:02:26;;;;;;;3.92;2.35;;;;;;;19.93;67.54;100061.28;4899443;29;20043;-83
2021/08/01 09:04:55;;;;;;;2.60;2.40;;;;;;;19.85;66.09;100062.75;4914863;29;20051;-83
2021/08/01 09:07:22;;;;;;;4.07;2.28;;;;;;;19.78;66.78;100065.00;4928145;29;20039;-82
2021/08/01 09:09:48;;;;;;;3.47;2.65;;;;;;;19.76;67.86;100071.41;4914972;29;20044;-83
2021/08/01 09:12:15;;;;;;;2.67;2.20;;;;;;;19.52;65.77;100069.41;4930292;29;20048;-83
2021/08/01 09:14:42;;;;;;;2.92;2.38;;;;;;;19.40;66.64;100072.88;4914816;29;20040;-82
2021/08/01 09:17:09;;;;;;;3.80;2.85;;;;;;;19.31;66.84;100071.66;4921636;29;20501;-82
2021/08/01 09:19:39;;;;;;;6.15;2.92;;;;;;;19.28;68.11;100065.66;4909019;29;20706;-83
2021/08/01 09:22:32;;;;;;;3.95;2.60;;;;;;;19.33;69.30;100079.59;4931134;29;20047;-82
2021/08/01 09:24:59;;;;;;;2.47;2.20;;;;;;;19.33;68.89;100074.25;4899811;29;20047;-81
2021/08/01 09:27:33;;;;;;;3.83;2.55;;;;;;;19.41;68.87;100077.28;4935520;28;20439;-80
2021/08/01 09:30:02;;;;;;;2.88;2.60;;;;;;;19.58;68.33;100074.34;4923014;29;20048;-82
2021/08/01 09:32:31;;;;;;;2.72;2.45;;;;;;;19.71;67.95;100068.19;4897741;29;20044;-84
2021/08/01 09:35:00;;;;;;;2.50;2.10;;;;;;;19.88;65.70;100071.44;4928001;29;20044;-81
2021/08/01 09:37:34;;;;;;;3.20;2.38;;;;;;;19.96;66.12;100065.56;4917511;29;20062;-82
2021/08/01 09:40:12;;;;;;;2.70;2.50;;;;;;;20.00;65.33;100067.03;4910967;29;20051;-82
2021/08/01 09:42:40;;;;;;;2.70;2.25;;;;;;;20.03;64.52;100066.84;4919097;29;20075;-81
2021/08/01 09:45:12;;;;;;;2.70;2.40;;;;;;;19.95;65.93;100066.53;4925309;29;20056;-82
2021/08/01 09:47:39;;;;;;;5.35;3.03;;;;;;;19.95;65.38;100070.06;5015851;23;20043;-78
2021/08/01 09:50:07;;;;;;;2.92;2.55;;;;;;;19.93;66.04;100071.13;4942840;28;20520;-78
2021/08/01 09:52:33;;;;;;;3.22;2.55;;;;;;;19.93;65.27;100071.13;4946457;29;20574;-79
2021/08/01 09:55:01;;;;;;;6.05;2.60;;;;;;;19.85;66.28;100066.28;4915608;29;20042;-78
2021/08/01 09:57:28;;;;;;;7.93;3.70;;;;;;;19.95;67.15;100070.06;4912274;29;20558;-79
2021/08/01 10:00:09;;;;;;;2.80;2.42;;;;;;;20.03;65.64;100071.34;4926435;29;20154;-79
2021/08/01 10:02:40;;;;;;;10.05;3.15;;;;;;;20.12;67.30;100065.34;4917876;29;20099;-78
2021/08/01 10:05:15;;;;;;;5.32;2.65;;;;;;;20.16;66.53;100066.84;4938817;29;20050;-78
2021/08/01 10:07:46;;;;;;;2.80;2.45;;;;;;;20.30;65.90;100071.25;4933241;29;20040;-78
2021/08/01 10:10:16;;;;;;;4.03;2.85;;;;;;;20.35;64.58;100071.81;4906653;29;20051;-78
2021/08/01 10:12:47;;;;;;;2.78;2.25;;;;;;;20.28;64.50;100065.16;4946751;28;20078;-78
2021/08/01 10:15:15;;;;;;;3.03;2.72;;;;;;;20.10;64.03;100068.16;4942374;29;20060;-79
2021/08/01 10:17:41;;;;;;;2.85;2.45;;;;;;;19.91;65.81;100065.00;4925015;29;20650;-79
2021/08/01 10:20:09;;;;;;;5.43;2.60;;;;;;;19.79;66.40;100073.88;4940906;28;20504;-77
2021/08/01 10:22:37;;;;;;;3.33;2.80;;;;;;;19.71;66.18;100079.78;4931158;29;20111;-77
2021/08/01 10:25:31;;;;;;;3.28;2.58;;;;;;;19.55;67.05;100074.53;4923712;29;20074;-76
2021/08/01 10:28:00;;;;;;;2.63;2.42;;;;;;;19.66;67.29;100066.66;4937239;28;20036;-78
2021/08/01 10:30:27;;;;;;;2.53;2.17;;;;;;;19.58;66.72;100069.00;4928721;29;21549;-77
2021/08/01 10:33:00;;;;;;;3.75;2.25;;;;;;;19.52;66.81;100068.53;4912348;29;20052;-77
2021/08/01 10:35:28;;;;;;;3.88;2.30;;;;;;;19.67;67.08;100067.53;4925963;29;20131;-77
2021/08/01 10:37:56;;;;;;;2.83;2.10;;;;;;;19.77;65.28;100071.31;4932272;29;20044;-77
2021/08/01 10:40:24;;;;;;;2.83;2.28;;;;;;;19.88;66.15;100073.25;4938465;29;20530;-78
2021/08/01 10:43:00;;;;;;;2.42;2.22;;;;;;;19.71;65.40;100084.28;4921820;29;20077;-77
2021/08/01 10:45:27;;;;;;;2.70;2.00;;;;;;;19.76;64.67;100077.66;4942221;29;20044;-77
2021/08/01 10:47:54;;;;;;;7.43;2.80;;;;;;;19.80;64.67;100078.28;4946018;29;20496;-77
2021/08/01 10:50:24;;;;;;;2.88;2.22;;;;;;;19.94;64.40;100075.53;4962978;28;20055;-78
2021/08/01 10:53:19;;;;;;;3.08;2.67;;;;;;;19.88;63.05;100071.44;4958461;28;20104;-80
2021/08/01 10:55:53;;;;;;;2.83;2.30;;;;;;;20.04;64.00;100073.06;4950804;29;20044;-81
2021/08/01 10:58:20;;;;;;;3.25;2.65;;;;;;;20.04;64.99;100083.78;4939535;29;20107;-80
2021/08/01 11:00:56;;;;;;;3.65;2.33;;;;;;;19.95;63.49;100077.25;4931586;29;20515;-81
2021/08/01 11:03:23;;;;;;;2.40;2.10;;;;;;;19.86;64.93;100075.19;4934592;29;20107;-80
2021/08/01 11:05:50;;;;;;;3.83;2.65;;;;;;;19.85;65.81;100070.81;4930683;29;20130;-78
2021/08/01 11:08:17;;;;;;;2.85;2.25;;;;;;;19.95;66.35;100075.41;4916373;29;20485;-79
2021/08/01 11:10:44;;;;;;;3.42;2.00;;;;;;;19.96;64.76;100068.22;4929284;29;20044;-78
2021/08/01 11:13:29;;;;;;;2.70;2.33;;;;;;;19.81;64.47;100070.13;4967825;28;20076;-78
2021/08/01 11:15:55;;;;;;;3.72;2.13;;;;;;;19.89;65.24;100074.97;4934731;29;20062;-78
2021/08/01 11:18:28;;;;;;;2.67;2.35;;;;;;;19.95;64.27;100066.53;4936158;29;20491;-79
2021/08/01 11:20:56;;;;;;;3.45;2.55;;;;;;;19.91;65.91;100067.69;4934943;29;20048;-79
2021/08/01 11:23:51;;;;;;;4.22;2.50;;;;;;;19.96;64.96;100066.41;4918249;29;20107;-79
2021/08/01 11:26:18;;;;;;;2.88;2.20;;;;;;;20.02;66.04;100064.28;4929462;29;20449;-81
2021/08/01 11:29:04;;;;;;;2.90;2.60;;;;;;;20.16;65.61;100058.78;4933264;29;20047;-79
2021/08/01 11:31:31;;;;;;;3.85;2.70;;;;;;;20.33;63.84;100057.63;4913439;29;20311;-79
2021/08/01 11:34:18;;;;;;;3.25;2.53;;;;;;;20.44;64.56;100053.25;4949469;28;20036;-80
2021/08/01 11:36:45;;;;;;;9.13;3.20;;;;;;;20.48;63.93;100052.06;4928134;29;20048;-79